Terminal Aerodrome Forecast
Issued by NWS

Home | Current Version | Previous Version | Text Only | Print | Product List | Glossary On
Versions: 1 2 3 4 5 6 7 8 9 10 11 12 13 14 15 16 17
000
FTUS41 KPBZ 191140
TAFFKL
TAF
KFKL 191140Z 1912/2012 14012KT P6SM BKN250 WS020/19045KT
     FM191300 17010KT 6SM -RA OVC010 WS020/19045KT
     FM191600 19009KT 3SM -RA BR OVC007 WS020/22045KT
     FM200200 19009KT P6SM OVC008 WS020/23045KT=

USA.gov is the U.S. government's official web portal to all federal, state and local government web resources and services.